Mid Fortune — ZGCG8 — position and weather

sailwx.info

Track history (hours):
 
Tides and Currents Weather Stations Pressure Air Temp Water Temp Dewpoint Dewpoint Depression Visibility Wind Speed Wind Dir Waves Ship Positions

Mid Fortune

Last reported at 2015-Jul-28 02:19 UTC. Time now 2015-Jul-30 04:04 UTC.
Position N 31°19' W 010°03'.

Length 147 m; draft 8.9 m.

Type: Ship (hazmat cat B). MMSI: 319182000.

Date/timePositionNaut miles runAvg speedWind from/ knotsBaromVisibWave heightAir tempDewpointWater temp
2015-Jul-28 02:19N 31°19' W 010°03'1113.4
2015-Jul-28 01:30N 31°30' W 010°03'1213.1
2015-Jul-28 00:33N 31°43' W 010°03'24712.9
2015-Jul-27 05:22N 35°50' W 010°07'1112.9
2015-Jul-27 04:33N 36°00' W 010°07'1413.2
2015-Jul-27 03:29N 36°14' W 010°07'1213.4
2015-Jul-27 02:33N 36°27' W 010°07'1413.6
2015-Jul-27 01:33N 36°40' W 010°08'1313.5
2015-Jul-27 00:33N 36°54' W 010°08'1313.0
2015-Jul-26 23:33N 37°07' W 010°08'1312.9
2015-Jul-26 22:33N 37°20' W 010°08'1313.2
2015-Jul-26 21:33N 37°33' W 010°08'1313.2
2015-Jul-26 20:33N 37°46' W 010°09'1313.4
2015-Jul-26 19:33N 37°59' W 010°09'1413.4
2015-Jul-26 18:33N 38°13' W 010°09'1313.4
2015-Jul-26 17:33N 38°26' W 010°09'1313.0
2015-Jul-26 16:33N 38°39' W 010°11'1313.2
2015-Jul-26 15:33N 38°52' W 010°12'1413.4
2015-Jul-26 14:33N 39°06' W 010°09'1313.3
2015-Jul-26 13:33N 39°19' W 010°07'17513.2
2015-Jul-26 00:20N 42°14' W 010°06'54612.7
2015-Jul-24 05:14N 49°56' W 003°09'10412.8
2015-Jul-23 21:04N 50°25' W 000°33'1314.6
2015-Jul-23 20:12N 50°28' W 000°13'914.6
2015-Jul-23 19:33N 50°31' E 000°01'1414.4
2015-Jul-23 18:34N 50°34' E 000°23'1413.6
2015-Jul-23 17:33N 50°40' E 000°42'2512.5
2015-Jul-23 15:33N 50°56' E 001°13'1211.9
2015-Jul-23 14:33N 51°04' E 001°27'1413.7
2015-Jul-23 13:34N 51°12' E 001°44'1514.9
2015-Jul-23 12:33N 51°25' E 001°55'19912.4
2015-Jul-22 20:33N 54°06' E 005°10'1413.7
2015-Jul-22 19:31N 54°08' E 005°34'5115.6
2015-Jul-22 16:17N 54°12' E 007°00'3 4.3
2015-Jul-22 15:33N 54°12' E 007°06'1312.7
2015-Jul-22 14:33N 54°13' E 007°27'1211.8
2015-Jul-22 13:33N 54°08' E 007°46'1212.2
2015-Jul-22 12:33N 54°02' E 008°03'1010.4
2015-Jul-22 11:33N 53°60' E 008°21'1111.1
2015-Jul-22 10:33N 53°57' E 008°39'1111.4
2015-Jul-22 09:33N 53°51' E 008°55'1212.4
2015-Jul-22 08:34N 53°52' E 009°16'1313.3
2015-Jul-22 07:33N 53°42' E 009°30'1010.4
2015-Jul-22 06:33N 53°34' E 009°42'9 8.7
2015-Jul-22 05:33N 53°32' E 009°56'1 1.1
2015-Jul-22 04:32N 53°31' E 009°56'0 0.0
2015-Jul-22 03:32N 53°31' E 009°56'0 0.0
2015-Jul-22 02:32N 53°31' E 009°56'0 0.0
2015-Jul-22 01:32N 53°31' E 009°56'0 0.0
2015-Jul-22 00:32N 53°31' E 009°56'0 0.0
2015-Jul-21 23:29N 53°31' E 009°56'0 0.0
2015-Jul-21 22:32N 53°31' E 009°56'0 0.0
2015-Jul-21 21:32N 53°31' E 009°56'0 0.0
2015-Jul-21 20:32N 53°31' E 009°56'0 0.0
2015-Jul-21 19:32N 53°31' E 009°56'0 0.0
2015-Jul-21 18:29N 53°31' E 009°56'0 0.0
2015-Jul-21 17:32N 53°31' E 009°56'0 0.0
2015-Jul-21 16:29N 53°31' E 009°56'0 0.0
2015-Jul-21 15:29N 53°31' E 009°56'0 0.0
2015-Jul-21 14:29N 53°31' E 009°56'0 0.0
2015-Jul-21 13:23N 53°31' E 009°56'0 0.0
2015-Jul-21 12:29N 53°31' E 009°56'0 0.0
2015-Jul-21 11:29N 53°31' E 009°56'0 0.0
2015-Jul-21 10:29N 53°31' E 009°56'0 0.0
2015-Jul-21 09:29N 53°31' E 009°56'0 0.0
2015-Jul-21 08:32N 53°31' E 009°56'0 0.0
2015-Jul-21 07:32N 53°31' E 009°56'0 0.0
2015-Jul-21 06:32N 53°31' E 009°56'0 0.0
2015-Jul-21 05:32N 53°31' E 009°56'0 0.0
2015-Jul-21 04:32N 53°31' E 009°56'0 0.0
2015-Jul-21 03:32N 53°31' E 009°56'0 0.0
2015-Jul-21 02:32N 53°31' E 009°56'0 0.0
2015-Jul-21 01:20N 53°31' E 009°56'0 0.0
2015-Jul-21 00:29N 53°31' E 009°56'0 0.0
2015-Jul-20 23:32N 53°31' E 009°56'0 0.0
2015-Jul-20 22:32N 53°31' E 009°56'0 0.0
2015-Jul-20 21:29N 53°31' E 009°56'0 0.0
2015-Jul-20 20:26N 53°31' E 009°56'0 0.0
2015-Jul-20 19:32N 53°31' E 009°56'0 0.0
2015-Jul-20 18:32N 53°31' E 009°56'0 0.0
2015-Jul-20 17:32N 53°31' E 009°56'0 0.0
2015-Jul-20 16:26N 53°31' E 009°56'0 0.0
2015-Jul-20 15:32N 53°31' E 009°56'0 0.0
2015-Jul-20 14:32N 53°31' E 009°56'0 0.0
2015-Jul-20 13:32N 53°31' E 009°56'0 0.0
2015-Jul-20 12:32N 53°31' E 009°56'0 0.0
2015-Jul-20 11:32N 53°31' E 009°56'0 0.0
2015-Jul-20 10:32N 53°31' E 009°56'0 0.0
2015-Jul-20 09:29N 53°31' E 009°56'0 0.0
2015-Jul-20 08:29N 53°31' E 009°56'0 0.0
2015-Jul-20 07:29N 53°31' E 009°56'0 0.0
2015-Jul-20 06:29N 53°31' E 009°56'0 0.0
2015-Jul-20 05:32N 53°31' E 009°56'0 0.0
2015-Jul-20 04:29N 53°31' E 009°56'0 0.0
2015-Jul-20 03:32N 53°31' E 009°56'0 0.0
2015-Jul-20 02:32N 53°31' E 009°56'0 0.0
2015-Jul-20 01:26N 53°31' E 009°56'0 0.0
2015-Jul-20 00:32N 53°31' E 009°56'0 0.0
2015-Jul-19 23:32N 53°31' E 009°56'0 0.0
2015-Jul-19 22:29N 53°31' E 009°56'0 0.0
2015-Jul-19 21:32N 53°31' E 009°56'0 0.0
2015-Jul-19 20:29N 53°31' E 009°56'0 0.0
2015-Jul-19 19:32N 53°31' E 009°56'0 0.0
2015-Jul-19 18:29N 53°31' E 009°56'0 0.0
2015-Jul-19 17:29N 53°31' E 009°56'0 0.0
2015-Jul-19 16:29N 53°31' E 009°56'0 0.0
2015-Jul-19 15:32N 53°31' E 009°56'0 0.0
2015-Jul-19 14:32N 53°31' E 009°56'0 0.0
2015-Jul-19 13:29N 53°31' E 009°56'0 0.0
2015-Jul-19 12:29N 53°31' E 009°56'0 0.0
2015-Jul-19 11:32N 53°31' E 009°56'0 0.0
2015-Jul-19 10:32N 53°31' E 009°56'0 0.0
2015-Jul-19 09:32N 53°31' E 009°56'0 0.0
2015-Jul-19 08:32N 53°31' E 009°56'0 0.0
2015-Jul-19 07:32N 53°31' E 009°56'0 0.0
2015-Jul-19 06:29N 53°31' E 009°56'0 0.0
2015-Jul-19 05:32N 53°31' E 009°56'0 0.0
2015-Jul-19 04:32N 53°31' E 009°56'0 0.0
2015-Jul-19 00:32N 53°31' E 009°56'0 0.0
2015-Jul-18 23:32N 53°31' E 009°56'0 0.0
2015-Jul-18 22:32N 53°31' E 009°56'0 0.0
2015-Jul-18 21:32N 53°31' E 009°56'0 0.0
2015-Jul-18 20:29N 53°31' E 009°56'0 0.0
2015-Jul-18 19:29N 53°31' E 009°56'0 0.0
2015-Jul-18 18:29N 53°31' E 009°56'0 0.0
2015-Jul-18 17:32N 53°31' E 009°56'0 0.0
2015-Jul-18 16:32N 53°31' E 009°56'0 0.0
2015-Jul-18 15:29N 53°31' E 009°56'0 0.0
2015-Jul-18 14:29N 53°31' E 009°56'0 0.0
2015-Jul-18 13:32N 53°31' E 009°56'0 0.0
2015-Jul-18 12:32N 53°31' E 009°56'0 0.0
2015-Jul-18 11:32N 53°31' E 009°56'0 0.0
2015-Jul-18 10:29N 53°31' E 009°56'0 0.0
2015-Jul-18 09:29N 53°31' E 009°56'0 0.0
2015-Jul-18 08:32N 53°31' E 009°56'0 0.0
2015-Jul-18 07:32N 53°31' E 009°56'0 0.0
2015-Jul-18 06:32N 53°31' E 009°56'0 0.0
2015-Jul-18 05:26N 53°31' E 009°56'0 0.0
2015-Jul-18 04:32N 53°31' E 009°56'0 0.0
2015-Jul-18 03:29N 53°31' E 009°56'0 0.0
2015-Jul-18 02:32N 53°31' E 009°56'  
Track history (hours):
 
Tides and Currents Weather Stations Pressure Air Temp Water Temp Dewpoint Dewpoint Depression Visibility Wind Speed Wind Dir Waves Ship Positions

Mid Fortune

Last reported at 2015-Jul-28 02:19 UTC. Time now 2015-Jul-30 04:04 UTC.
Position N 31°19' W 010°03'.

Length 147 m; draft 8.9 m.

Type: Ship (hazmat cat B). MMSI: 319182000.

Date/timePositionNaut miles runAvg speedWind from/ knotsBaromVisibWave heightAir tempDewpointWater temp
2015-Jul-28 02:19N 31°19' W 010°03'1113.4
2015-Jul-28 01:30N 31°30' W 010°03'1213.1
2015-Jul-28 00:33N 31°43' W 010°03'24712.9
2015-Jul-27 05:22N 35°50' W 010°07'1112.9
2015-Jul-27 04:33N 36°00' W 010°07'1413.2
2015-Jul-27 03:29N 36°14' W 010°07'1213.4
2015-Jul-27 02:33N 36°27' W 010°07'1413.6
2015-Jul-27 01:33N 36°40' W 010°08'1313.5
2015-Jul-27 00:33N 36°54' W 010°08'1313.0
2015-Jul-26 23:33N 37°07' W 010°08'1312.9
2015-Jul-26 22:33N 37°20' W 010°08'1313.2
2015-Jul-26 21:33N 37°33' W 010°08'1313.2
2015-Jul-26 20:33N 37°46' W 010°09'1313.4
2015-Jul-26 19:33N 37°59' W 010°09'1413.4
2015-Jul-26 18:33N 38°13' W 010°09'1313.4
2015-Jul-26 17:33N 38°26' W 010°09'1313.0
2015-Jul-26 16:33N 38°39' W 010°11'1313.2
2015-Jul-26 15:33N 38°52' W 010°12'1413.4
2015-Jul-26 14:33N 39°06' W 010°09'1313.3
2015-Jul-26 13:33N 39°19' W 010°07'17513.2
2015-Jul-26 00:20N 42°14' W 010°06'54612.7
2015-Jul-24 05:14N 49°56' W 003°09'10412.8
2015-Jul-23 21:04N 50°25' W 000°33'1314.6
2015-Jul-23 20:12N 50°28' W 000°13'914.6
2015-Jul-23 19:33N 50°31' E 000°01'1414.4
2015-Jul-23 18:34N 50°34' E 000°23'1413.6
2015-Jul-23 17:33N 50°40' E 000°42'2512.5
2015-Jul-23 15:33N 50°56' E 001°13'1211.9
2015-Jul-23 14:33N 51°04' E 001°27'1413.7
2015-Jul-23 13:34N 51°12' E 001°44'1514.9
2015-Jul-23 12:33N 51°25' E 001°55'19912.4
2015-Jul-22 20:33N 54°06' E 005°10'1413.7
2015-Jul-22 19:31N 54°08' E 005°34'5115.6
2015-Jul-22 16:17N 54°12' E 007°00'3 4.3
2015-Jul-22 15:33N 54°12' E 007°06'1312.7
2015-Jul-22 14:33N 54°13' E 007°27'1211.8
2015-Jul-22 13:33N 54°08' E 007°46'1212.2
2015-Jul-22 12:33N 54°02' E 008°03'1010.4
2015-Jul-22 11:33N 53°60' E 008°21'1111.1
2015-Jul-22 10:33N 53°57' E 008°39'1111.4
2015-Jul-22 09:33N 53°51' E 008°55'1212.4
2015-Jul-22 08:34N 53°52' E 009°16'1313.3
2015-Jul-22 07:33N 53°42' E 009°30'1010.4
2015-Jul-22 06:33N 53°34' E 009°42'9 8.7
2015-Jul-22 05:33N 53°32' E 009°56'1 1.1
2015-Jul-22 04:32N 53°31' E 009°56'0 0.0
2015-Jul-22 03:32N 53°31' E 009°56'0 0.0
2015-Jul-22 02:32N 53°31' E 009°56'0 0.0
2015-Jul-22 01:32N 53°31' E 009°56'0 0.0
2015-Jul-22 00:32N 53°31' E 009°56'0 0.0
2015-Jul-21 23:29N 53°31' E 009°56'0 0.0
2015-Jul-21 22:32N 53°31' E 009°56'0 0.0
2015-Jul-21 21:32N 53°31' E 009°56'0 0.0
2015-Jul-21 20:32N 53°31' E 009°56'0 0.0
2015-Jul-21 19:32N 53°31' E 009°56'0 0.0
2015-Jul-21 18:29N 53°31' E 009°56'0 0.0
2015-Jul-21 17:32N 53°31' E 009°56'0 0.0
2015-Jul-21 16:29N 53°31' E 009°56'0 0.0
2015-Jul-21 15:29N 53°31' E 009°56'0 0.0
2015-Jul-21 14:29N 53°31' E 009°56'0 0.0
2015-Jul-21 13:23N 53°31' E 009°56'0 0.0
2015-Jul-21 12:29N 53°31' E 009°56'0 0.0
2015-Jul-21 11:29N 53°31' E 009°56'0 0.0
2015-Jul-21 10:29N 53°31' E 009°56'0 0.0
2015-Jul-21 09:29N 53°31' E 009°56'0 0.0
2015-Jul-21 08:32N 53°31' E 009°56'0 0.0
2015-Jul-21 07:32N 53°31' E 009°56'0 0.0
2015-Jul-21 06:32N 53°31' E 009°56'0 0.0
2015-Jul-21 05:32N 53°31' E 009°56'0 0.0
2015-Jul-21 04:32N 53°31' E 009°56'0 0.0
2015-Jul-21 03:32N 53°31' E 009°56'0 0.0
2015-Jul-21 02:32N 53°31' E 009°56'0 0.0
2015-Jul-21 01:20N 53°31' E 009°56'0 0.0
2015-Jul-21 00:29N 53°31' E 009°56'0 0.0
2015-Jul-20 23:32N 53°31' E 009°56'0 0.0
2015-Jul-20 22:32N 53°31' E 009°56'0 0.0
2015-Jul-20 21:29N 53°31' E 009°56'0 0.0
2015-Jul-20 20:26N 53°31' E 009°56'0 0.0
2015-Jul-20 19:32N 53°31' E 009°56'0 0.0
2015-Jul-20 18:32N 53°31' E 009°56'0 0.0
2015-Jul-20 17:32N 53°31' E 009°56'0 0.0
2015-Jul-20 16:26N 53°31' E 009°56'0 0.0
2015-Jul-20 15:32N 53°31' E 009°56'0 0.0
2015-Jul-20 14:32N 53°31' E 009°56'0 0.0
2015-Jul-20 13:32N 53°31' E 009°56'0 0.0
2015-Jul-20 12:32N 53°31' E 009°56'0 0.0
2015-Jul-20 11:32N 53°31' E 009°56'0 0.0
2015-Jul-20 10:32N 53°31' E 009°56'0 0.0
2015-Jul-20 09:29N 53°31' E 009°56'0 0.0
2015-Jul-20 08:29N 53°31' E 009°56'0 0.0
2015-Jul-20 07:29N 53°31' E 009°56'0 0.0
2015-Jul-20 06:29N 53°31' E 009°56'0 0.0
2015-Jul-20 05:32N 53°31' E 009°56'0 0.0
2015-Jul-20 04:29N 53°31' E 009°56'0 0.0
2015-Jul-20 03:32N 53°31' E 009°56'0 0.0
2015-Jul-20 02:32N 53°31' E 009°56'0 0.0
2015-Jul-20 01:26N 53°31' E 009°56'0 0.0
2015-Jul-20 00:32N 53°31' E 009°56'0 0.0
2015-Jul-19 23:32N 53°31' E 009°56'0 0.0
2015-Jul-19 22:29N 53°31' E 009°56'0 0.0
2015-Jul-19 21:32N 53°31' E 009°56'0 0.0
2015-Jul-19 20:29N 53°31' E 009°56'0 0.0
2015-Jul-19 19:32N 53°31' E 009°56'0 0.0
2015-Jul-19 18:29N 53°31' E 009°56'0 0.0
2015-Jul-19 17:29N 53°31' E 009°56'0 0.0
2015-Jul-19 16:29N 53°31' E 009°56'0 0.0
2015-Jul-19 15:32N 53°31' E 009°56'0 0.0
2015-Jul-19 14:32N 53°31' E 009°56'0 0.0
2015-Jul-19 13:29N 53°31' E 009°56'0 0.0
2015-Jul-19 12:29N 53°31' E 009°56'0 0.0
2015-Jul-19 11:32N 53°31' E 009°56'0 0.0
2015-Jul-19 10:32N 53°31' E 009°56'0 0.0
2015-Jul-19 09:32N 53°31' E 009°56'0 0.0
2015-Jul-19 08:32N 53°31' E 009°56'0 0.0
2015-Jul-19 07:32N 53°31' E 009°56'0 0.0
2015-Jul-19 06:29N 53°31' E 009°56'0 0.0
2015-Jul-19 05:32N 53°31' E 009°56'0 0.0
2015-Jul-19 04:32N 53°31' E 009°56'0 0.0
2015-Jul-19 00:32N 53°31' E 009°56'0 0.0
2015-Jul-18 23:32N 53°31' E 009°56'0 0.0
2015-Jul-18 22:32N 53°31' E 009°56'0 0.0
2015-Jul-18 21:32N 53°31' E 009°56'0 0.0
2015-Jul-18 20:29N 53°31' E 009°56'0 0.0
2015-Jul-18 19:29N 53°31' E 009°56'0 0.0
2015-Jul-18 18:29N 53°31' E 009°56'0 0.0
2015-Jul-18 17:32N 53°31' E 009°56'0 0.0
2015-Jul-18 16:32N 53°31' E 009°56'0 0.0
2015-Jul-18 15:29N 53°31' E 009°56'0 0.0
2015-Jul-18 14:29N 53°31' E 009°56'0 0.0
2015-Jul-18 13:32N 53°31' E 009°56'0 0.0
2015-Jul-18 12:32N 53°31' E 009°56'0 0.0
2015-Jul-18 11:32N 53°31' E 009°56'0 0.0
2015-Jul-18 10:29N 53°31' E 009°56'0 0.0
2015-Jul-18 09:29N 53°31' E 009°56'0 0.0
2015-Jul-18 08:32N 53°31' E 009°56'0 0.0
2015-Jul-18 07:32N 53°31' E 009°56'0 0.0
2015-Jul-18 06:32N 53°31' E 009°56'0 0.0
2015-Jul-18 05:26N 53°31' E 009°56'0 0.0
2015-Jul-18 04:32N 53°31' E 009°56'0 0.0
2015-Jul-18 03:29N 53°31' E 009°56'0 0.0
2015-Jul-18 02:32N 53°31' E 009°56'  

Dump ship's entire track history